sensor_id;sensor_type;location;lat;lon;timestamp;pressure;altitude;pressure_sealevel;temperature;humidity
41636;BME280;27623;51.966;4.602;2023-04-06T00:01:07;63855.72;;;8.51;60.02
41636;BME280;27623;51.966;4.602;2023-04-06T00:03:32;63917.69;;;8.66;60.02
41636;BME280;27623;51.966;4.602;2023-04-06T00:06:00;63914.19;;;8.75;59.24
41636;BME280;27623;51.966;4.602;2023-04-06T00:08:26;63860.91;;;8.68;59.82
41636;BME280;27623;51.966;4.602;2023-04-06T00:10:52;63893.41;;;8.53;59.45
41636;BME280;27623;51.966;4.602;2023-04-06T00:13:17;63888.16;;;8.57;59.19
41636;BME280;27623;51.966;4.602;2023-04-06T00:15:45;63885.25;;;8.52;59.48
41636;BME280;27623;51.966;4.602;2023-04-06T00:18:11;63878.81;;;8.32;59.39
41636;BME280;27623;51.966;4.602;2023-04-06T00:20:36;63877.50;;;8.50;59.16
41636;BME280;27623;51.966;4.602;2023-04-06T00:23:01;63908.56;;;8.74;58.68
41636;BME280;27623;51.966;4.602;2023-04-06T00:25:27;63844.91;;;8.34;59.36
41636;BME280;27623;51.966;4.602;2023-04-06T00:27:52;63861.00;;;8.46;59.47
41636;BME280;27623;51.966;4.602;2023-04-06T00:30:18;63893.75;;;8.65;58.44
41636;BME280;27623;51.966;4.602;2023-04-06T00:32:43;63916.44;;;8.63;58.96
41636;BME280;27623;51.966;4.602;2023-04-06T00:35:09;63870.63;;;8.46;59.40
41636;BME280;27623;51.966;4.602;2023-04-06T00:37:34;63921.44;;;8.77;58.54
41636;BME280;27623;51.966;4.602;2023-04-06T00:40:00;63845.53;;;8.58;58.83
41636;BME280;27623;51.966;4.602;2023-04-06T00:42:25;63902.81;;;8.64;58.82
41636;BME280;27623;51.966;4.602;2023-04-06T00:44:56;63870.78;;;8.48;59.14
41636;BME280;27623;51.966;4.602;2023-04-06T00:47:22;63879.34;;;8.33;60.07
41636;BME280;27623;51.966;4.602;2023-04-06T00:49:50;63877.88;;;8.41;59.23
41636;BME280;27623;51.966;4.602;2023-04-06T00:52:15;63873.00;;;8.36;59.72
41636;BME280;27623;51.966;4.602;2023-04-06T00:54:43;63832.06;;;8.24;59.83
41636;BME280;27623;51.966;4.602;2023-04-06T00:57:09;63855.06;;;8.26;59.76
41636;BME280;27623;51.966;4.602;2023-04-06T00:59:34;63837.88;;;8.20;59.64
41636;BME280;27623;51.966;4.602;2023-04-06T01:02:02;63857.25;;;8.28;59.50
41636;BME280;27623;51.966;4.602;2023-04-06T01:04:27;63834.44;;;8.14;59.96
41636;BME280;27623;51.966;4.602;2023-04-06T01:06:53;63824.84;;;8.15;60.34
41636;BME280;27623;51.966;4.602;2023-04-06T01:09:18;63874.38;;;8.56;58.77
41636;BME280;27623;51.966;4.602;2023-04-06T01:11:44;63862.41;;;8.52;59.04
41636;BME280;27623;51.966;4.602;2023-04-06T01:14:09;63877.31;;;8.47;58.67
41636;BME280;27623;51.966;4.602;2023-04-06T01:16:36;63844.22;;;8.23;59.49
41636;BME280;27623;51.966;4.602;2023-04-06T01:19:09;63866.28;;;8.35;59.15
41636;BME280;27623;51.966;4.602;2023-04-06T01:21:36;63872.81;;;8.41;59.42
41636;BME280;27623;51.966;4.602;2023-04-06T01:24:01;63841.09;;;8.30;59.51
41636;BME280;27623;51.966;4.602;2023-04-06T01:26:27;63833.88;;;8.28;59.90
41636;BME280;27623;51.966;4.602;2023-04-06T01:28:54;63842.44;;;8.12;60.21
41636;BME280;27623;51.966;4.602;2023-04-06T01:31:20;63836.63;;;8.16;59.79
41636;BME280;27623;51.966;4.602;2023-04-06T01:33:46;63839.22;;;7.95;60.37
41636;BME280;27623;51.966;4.602;2023-04-06T01:36:12;63822.47;;;8.17;59.76
41636;BME280;27623;51.966;4.602;2023-04-06T01:38:37;63810.28;;;7.87;60.45
41636;BME280;27623;51.966;4.602;2023-04-06T01:41:07;63854.56;;;8.19;60.50
41636;BME280;27623;51.966;4.602;2023-04-06T01:43:32;63808.94;;;8.05;60.88
41636;BME280;27623;51.966;4.602;2023-04-06T01:45:57;63871.59;;;8.23;60.03
41636;BME280;27623;51.966;4.602;2023-04-06T01:48:23;63858.00;;;8.17;60.09
41636;BME280;27623;51.966;4.602;2023-04-06T01:50:48;63822.47;;;8.17;60.04
41636;BME280;27623;51.966;4.602;2023-04-06T01:53:13;63833.78;;;8.04;60.55
41636;BME280;27623;51.966;4.602;2023-04-06T01:55:42;63790.50;;;7.94;60.85
41636;BME280;27623;51.966;4.602;2023-04-06T01:58:07;63849.72;;;8.07;60.51
41636;BME280;27623;51.966;4.602;2023-04-06T02:00:33;63852.88;;;8.32;60.10
41636;BME280;27623;51.966;4.602;2023-04-06T02:02:58;63821.72;;;8.28;60.33
41636;BME280;27623;51.966;4.602;2023-04-06T02:05:25;63821.03;;;8.11;60.85
41636;BME280;27623;51.966;4.602;2023-04-06T02:07:50;63860.53;;;8.17;60.25
41636;BME280;27623;51.966;4.602;2023-04-06T02:10:16;63863.38;;;8.37;59.84
41636;BME280;27623;51.966;4.602;2023-04-06T02:12:42;63815.31;;;8.01;61.22
41636;BME280;27623;51.966;4.602;2023-04-06T02:15:08;63854.56;;;8.19;60.42
41636;BME280;27623;51.966;4.602;2023-04-06T02:17:33;63872.34;;;8.12;61.35
41636;BME280;27623;51.966;4.602;2023-04-06T02:19:58;63825.38;;;8.15;61.01
41636;BME280;27623;51.966;4.602;2023-04-06T02:22:24;63843.94;;;8.04;61.63
41636;BME280;27623;51.966;4.602;2023-04-06T02:24:49;63795.91;;;8.00;60.98
41636;BME280;27623;51.966;4.602;2023-04-06T02:27:15;63815.34;;;7.87;61.94
41636;BME280;27623;51.966;4.602;2023-04-06T02:29:41;63784.97;;;7.73;62.63
41636;BME280;27623;51.966;4.602;2023-04-06T02:32:06;63819.84;;;7.93;62.11
41636;BME280;27623;51.966;4.602;2023-04-06T02:34:31;63811.38;;;7.88;61.81
41636;BME280;27623;51.966;4.602;2023-04-06T02:36:57;63776.25;;;7.79;62.48
41636;BME280;27623;51.966;4.602;2023-04-06T02:39:22;63790.84;;;8.00;62.26
41636;BME280;27623;51.966;4.602;2023-04-06T02:41:48;63830.47;;;8.15;61.33
41636;BME280;27623;51.966;4.602;2023-04-06T02:44:15;63841.16;;;8.16;61.55
41636;BME280;27623;51.966;4.602;2023-04-06T02:46:40;63827.63;;;8.03;62.00
41636;BME280;27623;51.966;4.602;2023-04-06T02:49:06;63835.34;;;8.20;61.46
41636;BME280;27623;51.966;4.602;2023-04-06T02:51:31;63809.13;;;8.07;61.57
41636;BME280;27623;51.966;4.602;2023-04-06T02:53:58;63832.66;;;8.10;62.10
41636;BME280;27623;51.966;4.602;2023-04-06T02:56:25;63811.47;;;8.05;62.72
41636;BME280;27623;51.966;4.602;2023-04-06T02:58:51;63822.44;;;7.79;63.69
41636;BME280;27623;51.966;4.602;2023-04-06T03:01:17;63792.72;;;7.82;63.50
41636;BME280;27623;51.966;4.602;2023-04-06T03:03:42;63789.09;;;7.81;63.59
41636;BME280;27623;51.966;4.602;2023-04-06T03:06:07;63800.28;;;7.97;63.17
41636;BME280;27623;51.966;4.602;2023-04-06T03:08:33;63785.13;;;7.82;63.74
41636;BME280;27623;51.966;4.602;2023-04-06T03:10:58;63837.34;;;8.12;63.31
41636;BME280;27623;51.966;4.602;2023-04-06T03:13:23;63822.72;;;8.06;63.65
41636;BME280;27623;51.966;4.602;2023-04-06T03:15:51;63805.00;;;7.91;63.98
41636;BME280;27623;51.966;4.602;2023-04-06T03:18:21;63840.28;;;8.10;63.80
41636;BME280;27623;51.966;4.602;2023-04-06T03:20:49;63815.09;;;8.06;64.23
41636;BME280;27623;51.966;4.602;2023-04-06T03:23:15;63808.84;;;7.81;64.74
41636;BME280;27623;51.966;4.602;2023-04-06T03:25:41;63830.72;;;7.97;64.41
41636;BME280;27623;51.966;4.602;2023-04-06T03:28:06;63775.84;;;7.88;64.57
41636;BME280;27623;51.966;4.602;2023-04-06T03:30:31;63798.34;;;7.76;64.87
41636;BME280;27623;51.966;4.602;2023-04-06T03:32:57;63830.41;;;7.84;64.79
41636;BME280;27623;51.966;4.602;2023-04-06T03:35:22;63771.00;;;7.76;64.33
41636;BME280;27623;51.966;4.602;2023-04-06T03:37:48;63785.34;;;7.71;64.68
41636;BME280;27623;51.966;4.602;2023-04-06T03:40:13;63769.63;;;7.56;65.82
41636;BME280;27623;51.966;4.602;2023-04-06T03:42:38;63795.47;;;7.78;65.86
41636;BME280;27623;51.966;4.602;2023-04-06T03:45:04;63808.84;;;7.81;65.49
41636;BME280;27623;51.966;4.602;2023-04-06T03:47:30;63789.50;;;7.72;66.25
41636;BME280;27623;51.966;4.602;2023-04-06T03:49:55;63798.56;;;7.71;66.04
41636;BME280;27623;51.966;4.602;2023-04-06T03:52:21;63772.00;;;7.53;66.96
41636;BME280;27623;51.966;4.602;2023-04-06T03:54:48;63765.84;;;7.52;67.53
41636;BME280;27623;51.966;4.602;2023-04-06T03:57:13;63774.34;;;7.51;67.11
41636;BME280;27623;51.966;4.602;2023-04-06T03:59:39;63734.34;;;7.51;67.80
41636;BME280;27623;51.966;4.602;2023-04-06T04:02:04;63813.03;;;7.75;67.19
41636;BME280;27623;51.966;4.602;2023-04-06T04:04:30;63825.16;;;7.75;67.63
41636;BME280;27623;51.966;4.602;2023-04-06T04:06:55;63797.78;;;7.82;66.94
41636;BME280;27623;51.966;4.602;2023-04-06T04:09:21;63850.09;;;7.98;66.75
41636;BME280;27623;51.966;4.602;2023-04-06T04:11:46;63826.72;;;8.05;66.87
41636;BME280;27623;51.966;4.602;2023-04-06T04:14:11;63830.31;;;8.06;67.19
41636;BME280;27623;51.966;4.602;2023-04-06T04:16:37;63822.94;;;7.94;67.84
41636;BME280;27623;51.966;4.602;2023-04-06T04:19:04;63794.31;;;7.91;68.38
41636;BME280;27623;51.966;4.602;2023-04-06T04:21:30;63804.59;;;8.01;68.24
41636;BME280;27623;51.966;4.602;2023-04-06T04:23:56;63830.50;;;8.08;68.18
41636;BME280;27623;51.966;4.602;2023-04-06T04:26:22;63791.28;;;7.83;68.90
41636;BME280;27623;51.966;4.602;2023-04-06T04:28:47;63787.25;;;7.91;68.47
41636;BME280;27623;51.966;4.602;2023-04-06T04:31:12;63793.84;;;7.76;68.71
41636;BME280;27623;51.966;4.602;2023-04-06T04:33:38;63829.31;;;7.83;68.96
41636;BME280;27623;51.966;4.602;2023-04-06T04:36:03;63804.13;;;7.86;68.70
41636;BME280;27623;51.966;4.602;2023-04-06T04:38:29;63812.66;;;7.84;67.70
41636;BME280;27623;51.966;4.602;2023-04-06T04:40:54;63825.88;;;7.85;67.33
41636;BME280;27623;51.966;4.602;2023-04-06T04:43:20;63824.91;;;8.01;65.71
41636;BME280;27623;51.966;4.602;2023-04-06T04:45:45;63845.31;;;8.17;65.07
41636;BME280;27623;51.966;4.602;2023-04-06T04:48:10;63871.41;;;8.27;63.88
41636;BME280;27623;51.966;4.602;2023-04-06T04:50:38;63846.59;;;8.14;62.98
41636;BME280;27623;51.966;4.602;2023-04-06T04:53:04;63825.44;;;8.01;63.88
41636;BME280;27623;51.966;4.602;2023-04-06T04:55:32;63824.16;;;8.05;63.18
41636;BME280;27623;51.966;4.602;2023-04-06T04:58:00;63892.97;;;8.31;62.70
41636;BME280;27623;51.966;4.602;2023-04-06T05:00:25;63865.78;;;8.27;62.00
41636;BME280;27623;51.966;4.602;2023-04-06T05:02:50;63839.66;;;8.31;62.33
41636;BME280;27623;51.966;4.602;2023-04-06T05:05:16;63809.34;;;7.96;62.69
41636;BME280;27623;51.966;4.602;2023-04-06T05:07:41;63846.94;;;8.19;63.08
41636;BME280;27623;51.966;4.602;2023-04-06T05:10:07;63820.75;;;7.99;63.29
41636;BME280;27623;51.966;4.602;2023-04-06T05:12:32;63820.03;;;7.96;64.67
41636;BME280;27623;51.966;4.602;2023-04-06T05:15:00;63809.69;;;8.01;63.96
41636;BME280;27623;51.966;4.602;2023-04-06T05:17:26;63818.94;;;7.95;64.37
41636;BME280;27623;51.966;4.602;2023-04-06T05:19:51;63793.84;;;7.76;65.66
41636;BME280;27623;51.966;4.602;2023-04-06T05:22:17;63799.44;;;7.84;64.95
41636;BME280;27623;51.966;4.602;2023-04-06T05:24:43;63774.88;;;7.66;65.57
41636;BME280;27623;51.966;4.602;2023-04-06T05:27:11;63780.59;;;7.76;65.83
41636;BME280;27623;51.966;4.602;2023-04-06T05:29:36;63804.88;;;7.75;65.84
41636;BME280;27623;51.966;4.602;2023-04-06T05:32:02;63808.47;;;7.83;65.86
41636;BME280;27623;51.966;4.602;2023-04-06T05:34:27;63745.72;;;7.62;66.42
41636;BME280;27623;51.966;4.602;2023-04-06T05:36:55;63781.38;;;7.65;66.79
41636;BME280;27623;51.966;4.602;2023-04-06T05:39:21;63780.31;;;7.64;66.68
41636;BME280;27623;51.966;4.602;2023-04-06T05:41:46;63761.91;;;7.46;67.67
41636;BME280;27623;51.966;4.602;2023-04-06T05:44:11;63789.72;;;7.61;67.52
41636;BME280;27623;51.966;4.602;2023-04-06T05:46:37;63761.28;;;7.60;67.91
41636;BME280;27623;51.966;4.602;2023-04-06T05:49:03;63749.38;;;7.49;68.29
41636;BME280;27623;51.966;4.602;2023-04-06T05:51:28;63803.84;;;7.59;68.59
41636;BME280;27623;51.966;4.602;2023-04-06T05:53:53;63815.75;;;7.71;68.24
41636;BME280;27623;51.966;4.602;2023-04-06T05:56:19;63817.63;;;7.53;68.97
41636;BME280;27623;51.966;4.602;2023-04-06T05:58:44;63768.91;;;7.53;69.48
41636;BME280;27623;51.966;4.602;2023-04-06T06:01:10;63767.16;;;7.42;70.12
41636;BME280;27623;51.966;4.602;2023-04-06T06:03:35;63725.28;;;7.52;70.54
41636;BME280;27623;51.966;4.602;2023-04-06T06:06:01;63803.09;;;7.71;70.13
41636;BME280;27623;51.966;4.602;2023-04-06T06:08:27;63807.38;;;7.89;69.67
41636;BME280;27623;51.966;4.602;2023-04-06T06:10:53;63790.75;;;7.76;69.66
41636;BME280;27623;51.966;4.602;2023-04-06T06:13:18;63810.25;;;7.94;69.96
41636;BME280;27623;51.966;4.602;2023-04-06T06:15:46;63766.09;;;7.86;70.40
41636;BME280;27623;51.966;4.602;2023-04-06T06:18:11;63792.69;;;7.89;70.38
41636;BME280;27623;51.966;4.602;2023-04-06T06:20:37;63803.72;;;7.95;70.58
41636;BME280;27623;51.966;4.602;2023-04-06T06:23:02;63830.09;;;8.17;69.64
41636;BME280;27623;51.966;4.602;2023-04-06T06:25:28;63823.47;;;7.94;70.05
41636;BME280;27623;51.966;4.602;2023-04-06T06:27:55;63829.09;;;7.95;70.33
41636;BME280;27623;51.966;4.602;2023-04-06T06:30:23;63819.16;;;7.83;71.20
41636;BME280;27623;51.966;4.602;2023-04-06T06:32:50;63814.38;;;8.03;70.89
41636;BME280;27623;51.966;4.602;2023-04-06T06:35:16;63826.91;;;8.00;70.33
41636;BME280;27623;51.966;4.602;2023-04-06T06:37:41;63835.78;;;8.04;70.19
41636;BME280;27623;51.966;4.602;2023-04-06T06:40:08;63821.81;;;8.00;70.74
41636;BME280;27623;51.966;4.602;2023-04-06T06:42:36;63807.16;;;7.93;70.84
41636;BME280;27623;51.966;4.602;2023-04-06T06:45:02;63838.78;;;8.18;71.26
41636;BME280;27623;51.966;4.602;2023-04-06T06:47:27;63838.66;;;8.09;71.47
41636;BME280;27623;51.966;4.602;2023-04-06T06:49:53;63835.41;;;8.06;71.55
41636;BME280;27623;51.966;4.602;2023-04-06T06:52:18;63820.34;;;8.08;72.22
41636;BME280;27623;51.966;4.602;2023-04-06T06:54:44;63825.06;;;8.03;72.39
41636;BME280;27623;51.966;4.602;2023-04-06T06:57:09;63824.34;;;8.07;73.08
41636;BME280;27623;51.966;4.602;2023-04-06T06:59:35;63844.28;;;8.09;72.88
41636;BME280;27623;51.966;4.602;2023-04-06T07:02:00;63865.28;;;8.12;73.34
41636;BME280;27623;51.966;4.602;2023-04-06T07:04:26;63877.94;;;8.26;73.25
41636;BME280;27623;51.966;4.602;2023-04-06T07:06:51;63863.94;;;8.30;73.50
41636;BME280;27623;51.966;4.602;2023-04-06T07:09:17;63882.78;;;8.45;72.03
41636;BME280;27623;51.966;4.602;2023-04-06T07:11:43;63850.53;;;8.34;71.74
41636;BME280;27623;51.966;4.602;2023-04-06T07:14:08;63913.91;;;8.55;71.34
41636;BME280;27623;51.966;4.602;2023-04-06T07:16:36;63916.28;;;8.53;71.74
41636;BME280;27623;51.966;4.602;2023-04-06T07:19:04;63881.72;;;8.30;72.35
41636;BME280;27623;51.966;4.602;2023-04-06T07:21:30;63913.00;;;8.57;72.12
41636;BME280;27623;51.966;4.602;2023-04-06T07:23:55;63891.88;;;8.75;71.17
41636;BME280;27623;51.966;4.602;2023-04-06T07:26:20;63899.34;;;8.73;71.70
41636;BME280;27623;51.966;4.602;2023-04-06T07:28:48;63873.00;;;8.74;71.04
41636;BME280;27623;51.966;4.602;2023-04-06T07:31:13;63911.63;;;8.82;71.04
41636;BME280;27623;51.966;4.602;2023-04-06T07:33:39;63922.88;;;8.83;71.44
41636;BME280;27623;51.966;4.602;2023-04-06T07:36:05;63944.59;;;8.96;70.95
41636;BME280;27623;51.966;4.602;2023-04-06T07:38:30;63924.81;;;8.96;71.80
41636;BME280;27623;51.966;4.602;2023-04-06T07:40:55;63975.03;;;9.10;71.50
41636;BME280;27623;51.966;4.602;2023-04-06T07:43:23;63953.47;;;9.00;71.97
41636;BME280;27623;51.966;4.602;2023-04-06T07:45:49;63915.19;;;8.97;73.15
41636;BME280;27623;51.966;4.602;2023-04-06T07:48:14;63930.25;;;9.02;73.98
41636;BME280;27623;51.966;4.602;2023-04-06T07:50:42;63946.84;;;8.77;75.35
41636;BME280;27623;51.966;4.602;2023-04-06T07:53:08;63914.31;;;8.91;75.70
41636;BME280;27623;51.966;4.602;2023-04-06T07:55:34;63942.91;;;8.71;77.65
41636;BME280;27623;51.966;4.602;2023-04-06T07:58:00;63920.19;;;8.73;79.31
41636;BME280;27623;51.966;4.602;2023-04-06T08:00:25;63910.19;;;8.76;80.39
41636;BME280;27623;51.966;4.602;2023-04-06T08:02:50;63926.50;;;8.84;80.98
41636;BME280;27623;51.966;4.602;2023-04-06T08:05:16;63956.03;;;9.00;81.69
41636;BME280;27623;51.966;4.602;2023-04-06T08:07:43;63932.66;;;8.92;81.81
41636;BME280;27623;51.966;4.602;2023-04-06T08:10:08;63972.03;;;8.88;82.60
41636;BME280;27623;51.966;4.602;2023-04-06T08:12:34;63935.88;;;8.95;82.33
41636;BME280;27623;51.966;4.602;2023-04-06T08:14:59;63934.38;;;8.72;83.25
41636;BME280;27623;51.966;4.602;2023-04-06T08:17:25;63906.06;;;8.67;85.29
41636;BME280;27623;51.966;4.602;2023-04-06T08:19:52;63927.13;;;8.63;85.76
41636;BME280;27623;51.966;4.602;2023-04-06T08:22:18;63875.09;;;8.59;87.53
41636;BME280;27623;51.966;4.602;2023-04-06T08:24:43;63901.19;;;8.63;88.50
41636;BME280;27623;51.966;4.602;2023-04-06T08:27:08;63893.56;;;8.63;88.39
41636;BME280;27623;51.966;4.602;2023-04-06T08:29:34;63874.41;;;8.49;89.41
41636;BME280;27623;51.966;4.602;2023-04-06T08:31:59;63899.97;;;8.52;91.63
41636;BME280;27623;51.966;4.602;2023-04-06T08:34:25;63892.50;;;8.61;91.80
41636;BME280;27623;51.966;4.602;2023-04-06T08:36:50;63923.66;;;8.72;92.45
41636;BME280;27623;51.966;4.602;2023-04-06T08:39:16;63914.41;;;8.70;92.26
41636;BME280;27623;51.966;4.602;2023-04-06T08:41:42;63925.13;;;8.71;92.51
41636;BME280;27623;51.966;4.602;2023-04-06T08:44:10;63950.09;;;8.80;92.67
41636;BME280;27623;51.966;4.602;2023-04-06T08:46:36;63889.06;;;8.56;92.43
41636;BME280;27623;51.966;4.602;2023-04-06T08:49:03;63899.53;;;8.68;92.62
41636;BME280;27623;51.966;4.602;2023-04-06T08:51:29;63920.78;;;8.59;91.71
41636;BME280;27623;51.966;4.602;2023-04-06T08:53:57;63918.94;;;8.70;91.95
41636;BME280;27623;51.966;4.602;2023-04-06T08:56:26;63933.22;;;8.85;91.57
41636;BME280;27623;51.966;4.602;2023-04-06T08:58:53;63900.56;;;8.83;91.10
41636;BME280;27623;51.966;4.602;2023-04-06T09:01:26;63845.78;;;8.46;92.01
41636;BME280;27623;51.966;4.602;2023-04-06T09:03:57;63903.63;;;8.46;94.26
41636;BME280;27623;51.966;4.602;2023-04-06T09:06:23;63880.69;;;8.60;94.96
41636;BME280;27623;51.966;4.602;2023-04-06T09:08:48;63913.91;;;8.55;94.91
41636;BME280;27623;51.966;4.602;2023-04-06T09:11:14;63910.97;;;8.65;95.89
41636;BME280;27623;51.966;4.602;2023-04-06T09:13:47;63906.63;;;8.68;98.14
41636;BME280;27623;51.966;4.602;2023-04-06T09:16:13;63852.84;;;8.46;98.65
41636;BME280;27623;51.966;4.602;2023-04-06T09:18:41;63898.69;;;8.55;97.95
41636;BME280;27623;51.966;4.602;2023-04-06T09:21:08;63882.53;;;8.57;98.79
41636;BME280;27623;51.966;4.602;2023-04-06T09:23:34;63933.28;;;8.64;98.45
41636;BME280;27623;51.966;4.602;2023-04-06T09:26:12;63947.19;;;8.82;100.00
41636;BME280;27623;51.966;4.602;2023-04-06T09:28:51;63902.25;;;8.71;99.87
41636;BME280;27623;51.966;4.602;2023-04-06T09:31:22;63944.47;;;8.79;99.12
41636;BME280;27623;51.966;4.602;2023-04-06T09:33:48;63934.84;;;8.87;98.87
41636;BME280;27623;51.966;4.602;2023-04-06T09:36:14;63942.28;;;8.84;100.00
41636;BME280;27623;51.966;4.602;2023-04-06T09:39:01;63926.53;;;8.77;100.00
41636;BME280;27623;51.966;4.602;2023-04-06T09:41:29;63943.34;;;8.92;100.00
41636;BME280;27623;51.966;4.602;2023-04-06T09:46:34;63951.47;;;9.00;100.00
41636;BME280;27623;51.966;4.602;2023-04-06T09:49:04;63955.16;;;8.87;100.00
41636;BME280;27623;51.966;4.602;2023-04-06T09:51:31;63931.59;;;8.84;100.00
41636;BME280;27623;51.966;4.602;2023-04-06T09:53:57;63947.34;;;8.91;100.00
41636;BME280;27623;51.966;4.602;2023-04-06T09:56:31;63924.19;;;8.72;100.00
41636;BME280;27623;51.966;4.602;2023-04-06T09:59:04;63918.00;;;8.78;100.00
41636;BME280;27623;51.966;4.602;2023-04-06T10:01:32;63894.50;;;8.61;100.00
41636;BME280;27623;51.966;4.602;2023-04-06T10:06:28;63922.78;;;8.66;100.00
41636;BME280;27623;51.966;4.602;2023-04-06T10:09:02;63905.16;;;8.69;100.00
41636;BME280;27623;51.966;4.602;2023-04-06T10:11:28;63906.06;;;8.67;100.00
41636;BME280;27623;51.966;4.602;2023-04-06T10:13:55;63914.44;;;8.63;100.00
41636;BME280;27623;51.966;4.602;2023-04-06T10:16:24;63907.50;;;8.73;100.00
41636;BME280;27623;51.966;4.602;2023-04-06T10:18:55;63898.84;;;8.58;100.00
41636;BME280;27623;51.966;4.602;2023-04-06T10:21:25;63925.66;;;8.71;100.00
41636;BME280;27623;51.966;4.602;2023-04-06T10:23:58;63909.84;;;8.78;100.00
41636;BME280;27623;51.966;4.602;2023-04-06T10:26:24;63934.66;;;8.84;100.00
41636;BME280;27623;51.966;4.602;2023-04-06T10:28:50;63912.78;;;8.69;100.00
41636;BME280;27623;51.966;4.602;2023-04-06T10:31:24;63926.41;;;8.60;100.00
41636;BME280;27623;51.966;4.602;2023-04-06T10:34:00;63870.28;;;8.79;100.00
41636;BME280;27623;51.966;4.602;2023-04-06T10:39:00;63900.28;;;8.64;100.00
41636;BME280;27623;51.966;4.602;2023-04-06T10:41:41;63904.84;;;8.56;100.00
41636;BME280;27623;51.966;4.602;2023-04-06T10:44:17;63929.47;;;8.68;100.00
41636;BME280;27623;51.966;4.602;2023-04-06T10:46:56;63913.66;;;8.74;100.00
41636;BME280;27623;51.966;4.602;2023-04-06T10:49:21;63931.59;;;8.77;100.00
41636;BME280;27623;51.966;4.602;2023-04-06T10:51:55;63897.38;;;8.66;100.00
41636;BME280;27623;51.966;4.602;2023-04-06T10:54:25;63943.59;;;8.74;100.00
41636;BME280;27623;51.966;4.602;2023-04-06T10:56:50;63900.66;;;8.55;100.00
41636;BME280;27623;51.966;4.602;2023-04-06T10:59:22;63843.06;;;8.44;100.00
41636;BME280;27623;51.966;4.602;2023-04-06T11:01:49;63904.53;;;8.44;100.00
41636;BME280;27623;51.966;4.602;2023-04-06T11:04:19;63916.31;;;8.46;100.00
41636;BME280;27623;51.966;4.602;2023-04-06T11:06:47;63889.22;;;8.66;100.00
41636;BME280;27623;51.966;4.602;2023-04-06T11:09:23;63924.41;;;8.60;100.00
41636;BME280;27623;51.966;4.602;2023-04-06T11:11:49;63915.66;;;8.74;100.00
41636;BME280;27623;51.966;4.602;2023-04-06T11:14:14;63925.13;;;8.64;100.00
41636;BME280;27623;51.966;4.602;2023-04-06T11:16:40;63927.69;;;8.56;100.00
41636;BME280;27623;51.966;4.602;2023-04-06T11:19:05;63936.22;;;8.62;100.00
41636;BME280;27623;51.966;4.602;2023-04-06T11:24:18;63916.59;;;8.65;100.00
41636;BME280;27623;51.966;4.602;2023-04-06T11:26:57;63931.19;;;8.93;100.00
41636;BME280;27623;51.966;4.602;2023-04-06T11:29:28;63945.09;;;8.66;100.00
41636;BME280;27623;51.966;4.602;2023-04-06T11:32:04;63952.31;;;8.75;100.00
41636;BME280;27623;51.966;4.602;2023-04-06T11:34:34;63938.00;;;8.66;100.00
41636;BME280;27623;51.966;4.602;2023-04-06T11:37:03;63914.19;;;8.75;100.00
41636;BME280;27623;51.966;4.602;2023-04-06T11:39:47;63917.31;;;8.68;100.00
41636;BME280;27623;51.966;4.602;2023-04-06T11:42:24;63912.03;;;8.73;100.00
41636;BME280;27623;51.966;4.602;2023-04-06T11:44:56;63960.13;;;8.70;100.00
41636;BME280;27623;51.966;4.602;2023-04-06T11:47:37;63910.09;;;8.59;100.00
41636;BME280;27623;51.966;4.602;2023-04-06T11:50:12;63918.72;;;8.74;100.00
41636;BME280;27623;51.966;4.602;2023-04-06T11:52:41;63935.09;;;8.68;100.00
41636;BME280;27623;51.966;4.602;2023-04-06T11:55:19;63920.59;;;8.64;100.00
41636;BME280;27623;51.966;4.602;2023-04-06T11:57:45;63911.91;;;8.56;100.00
41636;BME280;27623;51.966;4.602;2023-04-06T12:00:11;63931.06;;;8.76;100.00
41636;BME280;27623;51.966;4.602;2023-04-06T12:02:37;63956.47;;;8.76;100.00
41636;BME280;27623;51.966;4.602;2023-04-06T12:05:04;63925.13;;;8.71;100.00
41636;BME280;27623;51.966;4.602;2023-04-06T12:07:31;63916.59;;;8.65;100.00
41636;BME280;27623;51.966;4.602;2023-04-06T12:09:57;63966.78;;;8.86;100.00
41636;BME280;27623;51.966;4.602;2023-04-06T12:12:23;63951.56;;;8.79;100.00
41636;BME280;27623;51.966;4.602;2023-04-06T12:14:48;63972.06;;;8.74;100.00
41636;BME280;27623;51.966;4.602;2023-04-06T12:17:14;63929.44;;;8.75;100.00
41636;BME280;27623;51.966;4.602;2023-04-06T12:19:39;63910.03;;;8.73;100.00
41636;BME280;27623;51.966;4.602;2023-04-06T12:22:05;63897.91;;;8.67;100.00
41636;BME280;27623;51.966;4.602;2023-04-06T12:24:31;63928.34;;;8.74;100.00
41636;BME280;27623;51.966;4.602;2023-04-06T12:26:56;63941.03;;;8.81;100.00
41636;BME280;27623;51.966;4.602;2023-04-06T12:29:23;63913.88;;;8.63;100.00
41636;BME280;27623;51.966;4.602;2023-04-06T12:31:49;63892.16;;;8.56;100.00
41636;BME280;27623;51.966;4.602;2023-04-06T12:34:14;63937.09;;;8.68;100.00
41636;BME280;27623;51.966;4.602;2023-04-06T12:36:40;63908.44;;;8.65;100.00
41636;BME280;27623;51.966;4.602;2023-04-06T12:39:05;63926.41;;;8.67;100.00
41636;BME280;27623;51.966;4.602;2023-04-06T12:41:31;63972.66;;;8.60;100.00
41636;BME280;27623;51.966;4.602;2023-04-06T12:43:57;63907.56;;;8.59;100.00
41636;BME280;27623;51.966;4.602;2023-04-06T12:46:24;63930.94;;;8.67;100.00
41636;BME280;27623;51.966;4.602;2023-04-06T12:48:51;63955.75;;;8.73;100.00
41636;BME280;27623;51.966;4.602;2023-04-06T12:51:18;63919.88;;;8.68;100.00
41636;BME280;27623;51.966;4.602;2023-04-06T12:53:45;63950.34;;;8.61;100.00
41636;BME280;27623;51.966;4.602;2023-04-06T12:56:14;63943.75;;;8.76;100.00
41636;BME280;27623;51.966;4.602;2023-04-06T12:58:40;63931.06;;;8.76;100.00
41636;BME280;27623;51.966;4.602;2023-04-06T13:01:07;63927.47;;;8.68;100.00
41636;BME280;27623;51.966;4.602;2023-04-06T13:03:33;63962.28;;;8.79;100.00
41636;BME280;27623;51.966;4.602;2023-04-06T13:06:00;63972.44;;;8.79;100.00
41636;BME280;27623;51.966;4.602;2023-04-06T13:08:25;63911.78;;;8.46;100.00
41636;BME280;27623;51.966;4.602;2023-04-06T13:10:51;63922.22;;;8.73;100.00
41636;BME280;27623;51.966;4.602;2023-04-06T13:13:25;63948.72;;;8.59;100.00
41636;BME280;27623;51.966;4.602;2023-04-06T13:15:52;63954.34;;;8.60;100.00